Hazen, ND

10:26 AM CDT on August 29, 2015 (GMT -0500)
Mercer County Regional | | Change Station
CLOSE
Current Station
Airport
Location: Hazen,
Elevation: 1814 ft
Nearby Weather Stations

Elev 1814 ft 47.29 °N, 101.58 °W | Updated 11 minutes ago

Haze
Haze
64 °F
Feels Like 64 °F
N
4
Wind Variable Wind from NW

Today
High -- | Low -- °F
--% Chance of Precip.
Yesterday
High -- | Low -- °F
Precip. -- in
7:01 AM 8:32 PM
Full, 100% visible
Pressure 29.95 in
Visibility 5.0 miles
Clouds Clear
Dew Point 57 °F
Humidity 77%
Rainfall 0.00 in
Snow Depth Not available.
UV 3 out of 12
Pollen 10.90 out of 12
Air Quality Not available.
Flu Activity Not available.
METAR KHZE 291515Z AUTO 32003KT 5SM HZ CLR 18/14 A2995 RMK AO2
Pressure 29.95 in
Visibility 5.0 miles
Clouds Clear
Dew Point 57 °F
Humidity 77%
Rainfall 0.00 in
Snow Depth Not available.
UV 3 out of 12
Pollen 10.90 out of 12
Air Quality Not available.
Flu Activity Not available.
METAR KHZE 291515Z AUTO 32003KT 5SM HZ CLR 18/14 A2995 RMK AO2

10-Day Weather Forecast

×

Almanac

Astronomy

Aug. 29, 2015 Rise Set
Actual Time
Civil Twilight
Nautical Twilight
Astronomical Twilight
Moon
Length of Visible Light
Length of Day
Tomorrow will be .
, % of the Moon is Illuminated

Today's Extremes

State Highs State Lows

Community

WunderPhotos

Upload Photos

1,850,694 photos uploaded!

WunderBlogs® & News

Nearby

Air Quality

  Air Quality AQ Index Pollutant
Not available.

Snow Depth

Station Depth Elevation

Earthquake Activity

City Distance Mag. Time & Date
Minimum magnitude displayed is 2.5.

Coastal Water Temperatures

Place Temperature

Stations

Nearby Weather Stations

Station Location Temp. Windchill Dew Point Humidity Wind Precip. Elev Updated Type